createdAt,value
2023-03-22T00:02:04.396Z,47.80
2023-03-22T00:04:31.330Z,40.80
2023-03-22T00:06:58.083Z,46.63
2023-03-22T00:09:24.861Z,44.80
2023-03-22T00:11:51.666Z,44.80
2023-03-22T00:14:18.629Z,42.50
2023-03-22T00:16:45.415Z,48.08
2023-03-22T00:19:12.444Z,38.50
2023-03-22T00:21:39.276Z,43.55
2023-03-22T00:24:06.344Z,44.67
2023-03-22T00:26:33.138Z,47.47
2023-03-22T00:29:00.351Z,50.60
2023-03-22T00:31:27.204Z,49.05
2023-03-22T00:33:54.024Z,41.53
2023-03-22T00:36:20.858Z,45.63
2023-03-22T00:38:48.073Z,45.97
2023-03-22T00:41:16.361Z,45.05
2023-03-22T00:43:44.125Z,40.90
2023-03-22T00:46:12.212Z,44.15
2023-03-22T00:48:39.695Z,44.25
2023-03-22T00:51:07.466Z,42.08
2023-03-22T00:53:34.662Z,44.92
2023-03-22T00:56:01.435Z,47.10
2023-03-22T00:58:28.288Z,40.83
2023-03-22T01:00:55.619Z,43.55
2023-03-22T01:03:22.736Z,39.75
2023-03-22T01:05:49.518Z,43.72
2023-03-22T01:08:16.859Z,43.20
2023-03-22T01:10:44.484Z,38.78
2023-03-22T01:13:12.413Z,43.95
2023-03-22T01:15:39.626Z,43.50
2023-03-22T01:18:06.458Z,43.28
2023-03-22T01:20:33.389Z,44.70
2023-03-22T01:23:00.264Z,44.50
2023-03-22T01:25:27.143Z,43.20
2023-03-22T01:27:54.056Z,44.78
2023-03-22T01:30:20.949Z,43.70
2023-03-22T01:32:47.943Z,40.42
2023-03-22T01:35:14.684Z,43.22
2023-03-22T01:37:41.495Z,41.20
2023-03-22T01:40:10.171Z,43.60
2023-03-22T01:42:37.036Z,43.15
2023-03-22T01:45:15.941Z,44.13
2023-03-22T01:47:55.168Z,46.20
2023-03-22T01:50:23.037Z,44.90
2023-03-22T01:52:51.118Z,45.15
2023-03-22T01:55:17.907Z,47.33
2023-03-22T01:57:45.558Z,45.60
2023-03-22T02:00:13.643Z,46.92
2023-03-22T02:02:40.707Z,41.78
2023-03-22T02:05:07.915Z,43.80
2023-03-22T02:07:36.137Z,45.03
2023-03-22T02:10:03.546Z,41.92
2023-03-22T02:12:51.400Z,46.78
2023-03-22T02:15:29.978Z,39.88
2023-03-22T02:17:56.722Z,39.00
2023-03-22T02:20:44.864Z,37.97
2023-03-22T02:23:52.537Z,38.60
2023-03-22T02:26:53.944Z,39.13
2023-03-22T02:29:25.312Z,36.42
2023-03-22T02:32:12.897Z,36.80
2023-03-22T02:34:45.018Z,37.90
2023-03-22T02:37:30.199Z,37.17
2023-03-22T02:42:27.274Z,40.10
2023-03-22T02:45:16.936Z,38.67
2023-03-22T02:47:55.339Z,36.70
2023-03-22T02:50:27.110Z,36.80
2023-03-22T02:52:57.202Z,36.63
2023-03-22T02:55:52.162Z,38.97
2023-03-22T02:58:46.359Z,36.67
2023-03-22T03:01:23.547Z,36.28
2023-03-22T03:03:52.514Z,33.65
2023-03-22T03:06:22.386Z,35.10
2023-03-22T03:08:50.062Z,36.30
2023-03-22T03:11:17.121Z,37.67
2023-03-22T03:13:47.448Z,42.20
2023-03-22T03:16:15.999Z,41.15
2023-03-22T03:19:00.465Z,42.78
2023-03-22T03:21:36.370Z,37.88
2023-03-22T03:24:15.476Z,40.60
2023-03-22T03:27:21.258Z,40.35
2023-03-22T03:29:48.143Z,45.10
2023-03-22T03:32:28.273Z,43.22
2023-03-22T03:35:06.652Z,38.88
2023-03-22T03:37:48.167Z,39.42
2023-03-22T03:40:19.272Z,42.15
2023-03-22T03:42:51.618Z,40.00
2023-03-22T03:45:19.624Z,37.28
2023-03-22T03:47:48.266Z,34.80
2023-03-22T03:50:16.512Z,35.95
2023-03-22T03:52:43.335Z,39.63
2023-03-22T03:55:10.340Z,35.53
2023-03-22T03:57:37.042Z,35.65
2023-03-22T04:00:05.531Z,34.55
2023-03-22T04:02:32.339Z,35.78
2023-03-22T04:04:59.237Z,36.70
2023-03-22T04:07:26.197Z,34.88
2023-03-22T04:09:52.975Z,30.80
2023-03-22T04:12:19.704Z,33.72
2023-03-22T04:14:46.394Z,35.60
2023-03-22T04:17:13.063Z,32.88
2023-03-22T04:19:39.913Z,33.95
2023-03-22T04:22:06.638Z,31.27
2023-03-22T04:24:33.488Z,32.13
2023-03-22T04:27:00.249Z,31.63
2023-03-22T04:29:26.908Z,31.67
2023-03-22T04:31:53.697Z,33.40
2023-03-22T04:34:20.425Z,33.55
2023-03-22T04:36:47.125Z,31.38
2023-03-22T04:39:13.849Z,35.33
2023-03-22T04:41:40.705Z,33.40
2023-03-22T04:44:07.757Z,34.78
2023-03-22T04:46:36.679Z,28.23
2023-03-22T04:49:05.245Z,33.25
2023-03-22T04:51:31.989Z,34.15
2023-03-22T04:53:59.200Z,34.03
2023-03-22T04:56:26.021Z,34.22
2023-03-22T04:58:53.150Z,31.63
2023-03-22T05:01:20.097Z,31.15
2023-03-22T05:03:46.961Z,31.73
2023-03-22T05:06:14.347Z,33.35
2023-03-22T05:08:41.571Z,33.65
2023-03-22T05:11:13.274Z,35.47
2023-03-22T05:13:40.375Z,37.78
2023-03-22T05:16:10.127Z,34.40
2023-03-22T05:18:37.061Z,33.38
2023-03-22T05:21:04.270Z,33.63
2023-03-22T05:23:31.052Z,34.58
2023-03-22T05:25:58.013Z,35.15
2023-03-22T05:28:25.645Z,36.00
2023-03-22T05:30:54.278Z,34.25
2023-03-22T05:33:22.104Z,31.70
2023-03-22T05:35:49.743Z,32.95
2023-03-22T05:38:17.372Z,33.53
2023-03-22T05:40:44.706Z,35.50
2023-03-22T05:43:14.404Z,37.33
2023-03-22T05:45:41.135Z,37.85
2023-03-22T05:48:08.213Z,33.72
2023-03-22T05:50:36.665Z,33.20
2023-03-22T05:53:03.710Z,30.50
2023-03-22T05:55:31.807Z,35.08
2023-03-22T05:58:00.029Z,32.90
2023-03-22T06:00:27.324Z,36.53
2023-03-22T06:02:54.310Z,38.03
2023-03-22T06:05:21.204Z,36.75
2023-03-22T06:07:48.039Z,33.92
2023-03-22T06:10:15.679Z,33.95
2023-03-22T06:12:42.447Z,36.17
2023-03-22T06:15:10.154Z,32.60
2023-03-22T06:17:36.965Z,36.63
2023-03-22T06:20:05.857Z,43.85
2023-03-22T06:22:32.601Z,38.47
2023-03-22T06:24:59.356Z,35.08
2023-03-22T06:27:26.080Z,36.05
2023-03-22T06:29:52.848Z,38.60
2023-03-22T06:32:21.844Z,34.30
2023-03-22T06:34:48.734Z,37.83
2023-03-22T06:37:15.575Z,37.90
2023-03-22T06:39:43.169Z,38.97
2023-03-22T06:42:12.735Z,36.50
2023-03-22T06:44:39.541Z,36.10
2023-03-22T06:47:06.422Z,38.30
2023-03-22T06:49:33.241Z,35.85
2023-03-22T06:52:00.111Z,35.78
2023-03-22T06:54:26.893Z,37.78
2023-03-22T06:56:53.783Z,37.28
2023-03-22T06:59:20.602Z,34.00
2023-03-22T07:01:47.506Z,36.95
2023-03-22T07:04:14.685Z,33.97
2023-03-22T07:06:41.570Z,32.30
2023-03-22T07:09:09.677Z,31.48
2023-03-22T07:11:36.815Z,31.60
2023-03-22T07:14:04.320Z,34.00
2023-03-22T07:16:31.240Z,36.13
2023-03-22T07:19:01.247Z,32.67
2023-03-22T07:21:28.353Z,33.70
2023-03-22T07:23:55.659Z,31.75
2023-03-22T07:26:23.210Z,32.78
2023-03-22T07:28:50.467Z,36.00
2023-03-22T07:31:24.225Z,37.42
2023-03-22T07:33:51.284Z,30.20
2023-03-22T07:36:19.492Z,37.42
2023-03-22T07:38:47.340Z,35.60
2023-03-22T07:41:14.298Z,34.30
2023-03-22T07:43:53.992Z,32.15
2023-03-22T07:46:23.839Z,32.45
2023-03-22T07:48:50.840Z,30.50
2023-03-22T07:51:20.625Z,34.55
2023-03-22T07:53:48.522Z,30.05
2023-03-22T07:56:17.815Z,33.05
2023-03-22T07:58:47.786Z,32.58
2023-03-22T08:01:15.613Z,31.35
2023-03-22T08:03:55.629Z,28.25
2023-03-22T08:06:28.820Z,27.42
2023-03-22T08:08:56.702Z,29.83
2023-03-22T08:11:27.069Z,29.52
2023-03-22T08:13:57.578Z,27.48
2023-03-22T08:16:24.523Z,29.88
2023-03-22T08:18:52.787Z,24.25
2023-03-22T08:21:24.050Z,29.30
2023-03-22T08:23:51.239Z,28.75
2023-03-22T08:26:19.028Z,23.70
2023-03-22T08:28:47.912Z,25.25
2023-03-22T08:31:22.123Z,26.65
2023-03-22T08:33:49.873Z,25.35
2023-03-22T08:36:22.010Z,23.52
2023-03-22T08:38:49.782Z,26.00
2023-03-22T08:41:18.105Z,25.80
2023-03-22T08:43:49.221Z,22.30
2023-03-22T08:46:16.566Z,22.83
2023-03-22T08:48:45.011Z,23.42
2023-03-22T08:53:51.867Z,21.73
2023-03-22T08:56:20.428Z,23.08
2023-03-22T08:58:47.531Z,27.50
2023-03-22T09:01:16.485Z,19.98
2023-03-22T09:03:46.417Z,21.65
2023-03-22T09:06:14.854Z,19.52
2023-03-22T09:08:57.980Z,23.73
2023-03-22T09:13:54.543Z,17.92
2023-03-22T09:16:28.214Z,18.85
2023-03-22T09:19:14.388Z,19.38
2023-03-22T09:21:50.544Z,17.38
2023-03-22T09:24:22.439Z,20.52
2023-03-22T09:26:54.645Z,21.38
2023-03-22T09:29:22.077Z,18.90
2023-03-22T09:31:52.475Z,19.60
2023-03-22T09:34:31.066Z,22.80
2023-03-22T09:37:06.526Z,21.15
2023-03-22T09:39:39.925Z,22.75
2023-03-22T09:42:45.901Z,18.50
2023-03-22T09:45:41.676Z,19.70
2023-03-22T09:48:29.545Z,18.83
2023-03-22T09:51:01.166Z,14.80
2023-03-22T09:53:29.531Z,19.73
2023-03-22T09:56:13.679Z,18.15
2023-03-22T09:59:05.791Z,17.48
2023-03-22T10:01:41.954Z,19.75
2023-03-22T10:07:34.044Z,16.15
2023-03-22T10:10:23.869Z,19.10
2023-03-22T10:13:14.647Z,13.88
2023-03-22T10:15:50.754Z,14.75
2023-03-22T10:18:26.224Z,14.68
2023-03-22T10:21:04.323Z,15.30
2023-03-22T10:23:45.972Z,18.50
2023-03-22T10:26:28.174Z,13.77
2023-03-22T10:29:17.624Z,18.23
2023-03-22T10:34:40.715Z,12.65
2023-03-22T10:37:16.442Z,15.13
2023-03-22T10:39:55.174Z,17.55
2023-03-22T10:42:30.940Z,14.25
2023-03-22T10:45:21.125Z,23.83
2023-03-22T10:48:10.193Z,19.60
2023-03-22T10:50:41.528Z,12.23
2023-03-22T10:53:39.438Z,18.83
2023-03-22T10:56:21.284Z,14.55
2023-03-22T11:05:35.245Z,13.57
2023-03-22T11:08:48.479Z,16.13
2023-03-22T11:11:39.059Z,15.35
2023-03-22T11:14:15.349Z,11.13
2023-03-22T11:17:03.158Z,11.75
2023-03-22T11:20:20.110Z,11.10
2023-03-22T11:22:54.605Z,13.02
2023-03-22T11:25:33.676Z,12.75
2023-03-22T11:28:22.159Z,11.00
2023-03-22T11:31:00.998Z,11.32
2023-03-22T11:33:33.978Z,12.13
2023-03-22T11:36:15.465Z,13.20
2023-03-22T11:38:42.716Z,10.18
2023-03-22T11:41:37.341Z,13.32
2023-03-22T11:44:14.445Z,12.57
2023-03-22T11:46:56.894Z,10.45
2023-03-22T11:49:27.491Z,9.38
2023-03-22T11:52:14.806Z,8.43
2023-03-22T11:54:42.808Z,10.82
2023-03-22T11:57:21.467Z,8.63
2023-03-22T12:00:12.297Z,9.50
2023-03-22T12:02:49.119Z,10.15
2023-03-22T12:05:27.389Z,9.05
2023-03-22T12:08:16.935Z,8.30
2023-03-22T12:10:53.709Z,15.00
2023-03-22T12:16:00.860Z,10.18
2023-03-22T12:18:56.526Z,9.48
2023-03-22T12:21:23.571Z,14.88
2023-03-22T12:23:50.562Z,8.63
2023-03-22T12:26:26.639Z,7.85
2023-03-22T12:29:01.765Z,7.28
2023-03-22T12:31:44.185Z,7.32
2023-03-22T12:34:24.826Z,8.10
2023-03-22T12:36:56.496Z,12.73
2023-03-22T12:39:29.570Z,7.60
2023-03-22T12:42:01.707Z,11.07
2023-03-22T12:44:38.828Z,9.75
2023-03-22T12:47:17.088Z,11.30
2023-03-22T12:49:56.770Z,9.02
2023-03-22T12:52:45.454Z,8.20
2023-03-22T12:55:39.329Z,10.05
2023-03-22T12:58:08.539Z,9.32
2023-03-22T13:00:52.620Z,8.20
2023-03-22T13:03:28.100Z,7.70
2023-03-22T13:06:07.785Z,9.00
2023-03-22T13:09:17.232Z,10.38
2023-03-22T13:12:25.453Z,7.38
2023-03-22T13:15:02.209Z,6.30
2023-03-22T13:17:29.264Z,7.68
2023-03-22T13:20:06.895Z,7.20
2023-03-22T13:22:47.789Z,7.65
2023-03-22T13:25:42.326Z,6.85
2023-03-22T13:28:38.447Z,5.97
2023-03-22T13:31:51.843Z,6.18
2023-03-22T13:34:39.060Z,5.30
2023-03-22T13:37:29.804Z,7.70
2023-03-22T13:40:00.601Z,9.07
2023-03-22T13:42:43.279Z,8.52
2023-03-22T13:45:33.847Z,5.78
2023-03-22T13:48:28.052Z,6.97
2023-03-22T13:50:56.255Z,7.57
2023-03-22T13:53:30.647Z,7.80
2023-03-22T13:56:04.626Z,5.95
2023-03-22T13:58:50.158Z,12.00
2023-03-22T14:01:41.750Z,8.70
2023-03-22T14:04:21.272Z,8.48
2023-03-22T14:07:10.596Z,9.65
2023-03-22T14:09:49.610Z,6.20
2023-03-22T14:12:24.861Z,6.95
2023-03-22T14:15:01.874Z,6.38
2023-03-22T14:18:01.029Z,6.78
2023-03-22T14:20:34.434Z,5.70
